LFRN

Rennes/Saint-Jacques Airport

Airport
ICAO code
LFRN
IATA Code
RNS
Summary
ICAO Region
EUR
ICAO Territory
Location

Saint-Jacques,

Serving
Rennes
Elevation
124 ft
Coordinates
48° 4' 16" N , 1° 43' 47" W
KCC
Metar
Observation
LFRN 030130Z AUTO 02007KT 9999 OVC022 04/01 Q1017 TEMPO BKN012
Station
Rennes
Date/Time
2022-12-03 01:30:00
Wind direction
20°
Wind speed
07 kts
Lowest cloud amount
overcast
Temperature
4°C
Dew point
1°C
Humidity
80%
QNH
1017 hPa
Weather condition
n/a

Runways

Designator Length Width Surface Rops
14/32 850 30 ASP Yes/Yes
10/28 2100 45 ASP Yes/Yes

Airport map

Aerial View

SKYbrary Partners:

Safety knowledge contributed by: